Time;durP1;ratioP1;P1;durP2;ratioP2;P2;SDS_P1;SDS_P2;PMS_P1;PMS_P2;Temp;Humidity;BMP_temperature;BMP_pressure;BME280_temperature;BME280_humidity;BME280_pressure;Samples;Min_cycle;Max_cycle;Signal;HPM_P1;HPM_P2
2021/09/16 00:00:12;;;;;;;1.48;1.38;;;;;;;;;;5024226;28;20061;-63
2021/09/16 00:02:38;;;;;;;;;;;;;;;;;;5028364;28;20132;-63
2021/09/16 00:05:05;;;;;;;3.60;1.35;;;;;;;;;;5023467;28;19925;-63
2021/09/16 00:07:31;;;;;;;2.20;1.20;;;;;;;;;;5020800;28;20084;-64
2021/09/16 00:09:59;;;;;;;;;;;;;;;;;;5024377;28;20050;-63
2021/09/16 00:12:25;;;;;;;2.78;1.23;;;;;;;;;;5024396;28;20381;-63
2021/09/16 00:14:52;;;;;;;3.00;1.20;;;;;;;;;;5023871;28;20471;-63
2021/09/16 00:17:19;;;;;;;3.05;1.60;;;;;;;;;;5025973;28;20048;-63
2021/09/16 00:19:46;;;;;;;4.28;1.52;;;;;;;;;;5022103;28;20037;-63
2021/09/16 00:22:12;;;;;;;4.07;1.48;;;;;;;;;;5004204;28;20077;-63
2021/09/16 00:24:39;;;;;;;3.25;1.70;;;;;;;;;;5020837;28;20056;-63
2021/09/16 00:27:05;;;;;;;4.25;1.75;;;;;;;;;;5025973;28;20600;-63
2021/09/16 00:29:32;;;;;;;5.20;1.52;;;;;;;;;;5025829;28;20081;-63
2021/09/16 00:31:58;;;;;;;2.28;1.52;;;;;;;;;;5025673;28;20129;-63
2021/09/16 00:34:25;;;;;;;2.50;1.48;;;;;;;;;;5022661;28;20091;-62
2021/09/16 00:36:51;;;;;;;5.53;1.33;;;;;;;;;;5022566;28;20132;-62
2021/09/16 00:39:18;;;;;;;6.47;1.73;;;;;;;;;;5026195;28;20045;-62
2021/09/16 00:41:44;;;;;;;2.80;1.50;;;;;;;;;;5023273;28;20088;-62
2021/09/16 00:44:11;;;;;;;2.78;1.40;;;;;;;;;;5022381;28;20589;-62
2021/09/16 00:46:37;;;;;;;5.00;1.67;;;;;;;;;;5025693;28;20061;-63
2021/09/16 00:49:05;;;;;;;3.20;1.98;;;;;;;;;;5023912;28;20053;-62
2021/09/16 00:51:31;;;;;;;2.53;1.52;;;;;;;;;;5027835;28;20081;-62
2021/09/16 00:53:58;;;;;;;3.03;1.55;;;;;;;;;;5020014;28;20613;-62
2021/09/16 00:56:25;;;;;;;2.85;1.60;;;;;;;;;;5021581;28;20136;-62
2021/09/16 00:58:52;;;;;;;5.70;1.65;;;;;;;;;;5025847;28;20103;-62
2021/09/16 01:01:19;;;;;;;3.00;1.70;;;;;;;;;;5023649;28;20422;-62
2021/09/16 01:03:45;;;;;;;2.53;1.85;;;;;;;;;;5018726;28;20072;-62
2021/09/16 01:06:12;;;;;;;2.92;1.95;;;;;;;;;;5023264;28;20096;-62
2021/09/16 01:08:39;;;;;;;4.35;1.70;;;;;;;;;;5024321;28;20160;-62
2021/09/16 01:11:06;;;;;;;9.20;2.33;;;;;;;;;;5022891;28;20484;-62
2021/09/16 01:13:32;;;;;;;4.47;1.65;;;;;;;;;;5020423;28;20124;-62
2021/09/16 01:16:00;;;;;;;2.13;1.80;;;;;;;;;;5022131;28;20081;-62
2021/09/16 01:18:27;;;;;;;4.30;1.90;;;;;;;;;;5018980;28;20129;-63
2021/09/16 01:20:54;;;;;;;4.18;2.10;;;;;;;;;;5021281;28;20125;-63
2021/09/16 01:23:22;;;;;;;3.75;2.03;;;;;;;;;;5024210;28;20129;-63
2021/09/16 01:25:48;;;;;;;3.10;1.95;;;;;;;;;;5022974;28;20081;-63
2021/09/16 01:28:15;;;;;;;3.47;1.83;;;;;;;;;;5023858;28;20469;-62
2021/09/16 01:30:43;;;;;;;3.63;1.88;;;;;;;;;;5023000;28;20081;-63
2021/09/16 01:33:10;;;;;;;5.57;2.08;;;;;;;;;;5020762;28;20092;-62
2021/09/16 01:35:37;;;;;;;4.57;1.95;;;;;;;;;;5020694;28;20133;-62
2021/09/16 01:38:04;;;;;;;2.97;2.00;;;;;;;;;;5025375;28;20136;-62
2021/09/16 01:40:30;;;;;;;2.55;1.73;;;;;;;;;;5023567;28;20144;-62
2021/09/16 01:42:57;;;;;;;4.72;2.13;;;;;;;;;;5024044;28;20089;-62
2021/09/16 01:45:25;;;;;;;4.00;2.05;;;;;;;;;;5019367;28;20088;-62
2021/09/16 01:47:51;;;;;;;9.07;2.35;;;;;;;;;;5021105;28;20073;-62
2021/09/16 01:50:19;;;;;;;4.32;2.00;;;;;;;;;;5020990;28;20136;-63
2021/09/16 01:52:46;;;;;;;2.92;2.20;;;;;;;;;;5024159;28;20107;-62
2021/09/16 01:55:13;;;;;;;4.20;1.90;;;;;;;;;;5021223;28;20136;-62
2021/09/16 01:57:40;;;;;;;5.10;2.15;;;;;;;;;;5027320;28;20293;-63
2021/09/16 02:00:08;;;;;;;3.75;2.10;;;;;;;;;;5027491;28;20133;-62
2021/09/16 02:02:34;;;;;;;4.13;2.10;;;;;;;;;;5022445;28;20363;-62
2021/09/16 02:05:01;;;;;;;3.08;1.90;;;;;;;;;;5021974;28;20096;-62
2021/09/16 02:07:28;;;;;;;5.32;2.17;;;;;;;;;;5018280;28;20128;-63
2021/09/16 02:09:54;;;;;;;4.07;2.00;;;;;;;;;;5025959;28;20327;-62
2021/09/16 02:12:21;;;;;;;4.10;1.77;;;;;;;;;;5021517;28;20132;-62
2021/09/16 02:14:48;;;;;;;2.78;1.83;;;;;;;;;;5020771;28;20296;-62
2021/09/16 02:17:14;;;;;;;4.70;2.13;;;;;;;;;;5021412;28;20079;-63
2021/09/16 02:19:40;;;;;;;1.88;1.67;;;;;;;;;;5023045;28;20133;-62
2021/09/16 02:22:07;;;;;;;4.38;2.10;;;;;;;;;;5027287;28;20057;-62
2021/09/16 02:24:34;;;;;;;9.18;2.50;;;;;;;;;;5018132;28;20085;-62
2021/09/16 02:27:00;;;;;;;5.32;1.92;;;;;;;;;;5025811;28;20132;-63
2021/09/16 02:29:27;;;;;;;3.90;2.20;;;;;;;;;;5023746;28;20083;-63
2021/09/16 02:31:53;;;;;;;3.58;2.22;;;;;;;;;;5023407;28;20107;-63
2021/09/16 02:34:19;;;;;;;2.70;2.13;;;;;;;;;;5027362;28;20103;-63
2021/09/16 02:36:47;;;;;;;2.78;1.83;;;;;;;;;;5020638;28;20080;-63
2021/09/16 02:39:13;;;;;;;2.35;2.05;;;;;;;;;;5024804;28;20089;-63
2021/09/16 02:41:40;;;;;;;4.10;1.95;;;;;;;;;;5018830;28;20049;-63
2021/09/16 02:44:07;;;;;;;4.82;2.10;;;;;;;;;;5019480;28;20125;-62
2021/09/16 02:46:33;;;;;;;3.70;2.38;;;;;;;;;;5027605;28;20083;-62
2021/09/16 02:49:01;;;;;;;4.57;1.92;;;;;;;;;;5023744;28;20118;-63
2021/09/16 02:51:28;;;;;;;3.08;1.80;;;;;;;;;;5023485;28;20136;-63
2021/09/16 02:53:54;;;;;;;5.15;1.92;;;;;;;;;;5027870;28;20041;-63
2021/09/16 02:56:21;;;;;;;4.75;2.13;;;;;;;;;;5019495;28;20209;-63
2021/09/16 02:58:47;;;;;;;3.90;2.00;;;;;;;;;;5026394;28;20454;-63
2021/09/16 03:01:14;;;;;;;4.20;2.30;;;;;;;;;;5021258;28;20170;-63
2021/09/16 03:03:40;;;;;;;3.40;2.07;;;;;;;;;;5024223;28;20046;-63
2021/09/16 03:06:08;;;;;;;2.85;1.70;;;;;;;;;;5029670;28;20085;-63
2021/09/16 03:08:34;;;;;;;2.58;2.15;;;;;;;;;;5018938;28;20103;-63
2021/09/16 03:11:01;;;;;;;6.35;2.35;;;;;;;;;;5030032;28;20505;-63
2021/09/16 03:13:27;;;;;;;4.90;2.93;;;;;;;;;;5021127;28;20204;-63
2021/09/16 03:15:54;;;;;;;4.07;2.47;;;;;;;;;;5025343;28;20045;-63
2021/09/16 03:18:20;;;;;;;5.60;2.75;;;;;;;;;;5025221;28;20527;-63
2021/09/16 03:20:47;;;;;;;3.50;2.42;;;;;;;;;;5024016;28;20132;-62
2021/09/16 03:23:13;;;;;;;7.53;2.80;;;;;;;;;;5017293;28;20133;-63
2021/09/16 03:25:40;;;;;;;5.32;2.30;;;;;;;;;;5026339;28;20156;-63
2021/09/16 03:28:06;;;;;;;3.50;2.10;;;;;;;;;;5024011;28;20132;-63
2021/09/16 03:30:33;;;;;;;5.35;2.60;;;;;;;;;;5025154;28;20141;-63
2021/09/16 03:32:59;;;;;;;5.72;2.10;;;;;;;;;;5027437;28;20133;-63
2021/09/16 03:35:26;;;;;;;4.85;2.20;;;;;;;;;;5028135;28;20501;-63
2021/09/16 03:37:53;;;;;;;4.72;2.70;;;;;;;;;;5021513;28;20569;-62
2021/09/16 03:40:19;;;;;;;4.97;2.25;;;;;;;;;;5019380;28;20058;-62
2021/09/16 03:42:46;;;;;;;5.13;2.50;;;;;;;;;;5027225;28;20545;-62
2021/09/16 03:45:12;;;;;;;6.43;2.63;;;;;;;;;;5026252;28;20081;-62
2021/09/16 03:47:39;;;;;;;5.38;2.65;;;;;;;;;;5028347;28;20144;-62
2021/09/16 03:50:06;;;;;;;3.75;2.50;;;;;;;;;;5024461;28;20136;-62
2021/09/16 03:52:32;;;;;;;4.70;2.45;;;;;;;;;;5025855;28;20076;-62
2021/09/16 03:54:59;;;;;;;7.00;2.80;;;;;;;;;;5029734;28;20128;-62
2021/09/16 03:57:25;;;;;;;6.03;2.55;;;;;;;;;;5031065;28;20140;-62
2021/09/16 03:59:52;;;;;;;5.00;2.47;;;;;;;;;;5028080;28;20136;-62
2021/09/16 04:02:18;;;;;;;9.07;2.75;;;;;;;;;;5022462;28;20084;-62
2021/09/16 04:04:45;;;;;;;3.65;2.40;;;;;;;;;;5018191;28;20069;-62
2021/09/16 04:07:11;;;;;;;4.60;2.72;;;;;;;;;;5021228;28;20132;-62
2021/09/16 04:09:37;;;;;;;7.80;3.13;;;;;;;;;;5026559;28;20054;-62
2021/09/16 04:12:04;;;;;;;9.82;3.00;;;;;;;;;;5027678;28;20145;-62
2021/09/16 04:14:31;;;;;;;5.38;2.97;;;;;;;;;;5026336;28;20490;-62
2021/09/16 04:16:57;;;;;;;7.53;3.28;;;;;;;;;;5028897;28;20548;-62
2021/09/16 04:19:24;;;;;;;7.20;2.95;;;;;;;;;;5020880;28;20046;-62
2021/09/16 04:21:50;;;;;;;7.18;3.30;;;;;;;;;;5022569;28;20137;-62
2021/09/16 04:24:16;;;;;;;12.52;2.90;;;;;;;;;;5019841;28;20469;-62
2021/09/16 04:26:44;;;;;;;5.70;3.30;;;;;;;;;;5024914;28;20472;-62
2021/09/16 04:29:11;;;;;;;10.05;3.20;;;;;;;;;;5022676;28;20046;-62
2021/09/16 04:31:39;;;;;;;6.85;3.03;;;;;;;;;;5022119;28;20042;-62
2021/09/16 04:34:06;;;;;;;7.40;2.60;;;;;;;;;;5026818;28;20089;-62
2021/09/16 04:36:32;;;;;;;5.32;2.60;;;;;;;;;;5025174;28;20132;-62
2021/09/16 04:38:58;;;;;;;5.45;3.10;;;;;;;;;;5026781;28;20045;-62
2021/09/16 04:41:26;;;;;;;7.65;2.83;;;;;;;;;;5024870;28;20549;-62
2021/09/16 04:43:52;;;;;;;8.45;3.17;;;;;;;;;;5019972;28;20455;-62
2021/09/16 04:46:18;;;;;;;4.72;2.50;;;;;;;;;;5022595;28;20074;-62
2021/09/16 04:48:45;;;;;;;7.40;2.58;;;;;;;;;;5023236;28;20049;-62
2021/09/16 04:51:11;;;;;;;6.35;2.40;;;;;;;;;;5024479;28;20088;-62
2021/09/16 04:53:37;;;;;;;6.03;2.70;;;;;;;;;;5023817;28;20085;-62
2021/09/16 04:56:04;;;;;;;6.50;2.53;;;;;;;;;;5025746;28;20128;-62
2021/09/16 04:58:31;;;;;;;7.05;2.90;;;;;;;;;;5022037;28;20601;-62
2021/09/16 05:00:57;;;;;;;3.45;2.40;;;;;;;;;;5022628;28;20103;-62
2021/09/16 05:03:24;;;;;;;5.75;2.55;;;;;;;;;;5022339;28;20081;-62
2021/09/16 05:05:51;;;;;;;6.88;2.70;;;;;;;;;;5027691;28;20041;-62
2021/09/16 05:08:17;;;;;;;7.70;2.50;;;;;;;;;;5027733;28;20585;-62
2021/09/16 05:10:44;;;;;;;6.13;2.60;;;;;;;;;;5019212;28;20153;-62
2021/09/16 05:13:11;;;;;;;4.45;2.40;;;;;;;;;;5018018;28;20129;-62
2021/09/16 05:15:37;;;;;;;6.88;2.20;;;;;;;;;;5023012;28;20137;-62
2021/09/16 05:18:04;;;;;;;4.67;2.30;;;;;;;;;;5029347;28;20137;-62
2021/09/16 05:20:30;;;;;;;4.75;2.15;;;;;;;;;;5025453;28;20403;-62
2021/09/16 05:22:57;;;;;;;4.63;2.10;;;;;;;;;;5024861;28;20137;-62
2021/09/16 05:25:23;;;;;;;5.73;2.10;;;;;;;;;;5016779;28;20054;-63
2021/09/16 05:27:50;;;;;;;5.57;2.30;;;;;;;;;;5021161;28;20087;-62
2021/09/16 05:30:16;;;;;;;6.75;2.08;;;;;;;;;;5020251;28;20151;-62
2021/09/16 05:32:44;;;;;;;2.65;1.92;;;;;;;;;;5022431;28;20134;-62
2021/09/16 05:35:11;;;;;;;7.70;2.67;;;;;;;;;;5023658;28;20136;-62
2021/09/16 05:37:38;;;;;;;8.30;2.47;;;;;;;;;;5022069;28;20082;-62
2021/09/16 05:40:06;;;;;;;4.70;2.40;;;;;;;;;;5020557;28;20050;-62
2021/09/16 05:42:32;;;;;;;5.45;2.35;;;;;;;;;;5021070;28;20160;-62
2021/09/16 05:44:59;;;;;;;4.65;2.50;;;;;;;;;;5025461;28;20121;-62
2021/09/16 05:47:26;;;;;;;2.92;2.13;;;;;;;;;;5026637;28;20508;-62
2021/09/16 05:49:52;;;;;;;15.32;2.72;;;;;;;;;;5029085;28;20103;-62
2021/09/16 05:52:19;;;;;;;5.85;2.40;;;;;;;;;;5024263;28;20501;-62
2021/09/16 05:54:45;;;;;;;3.63;2.40;;;;;;;;;;5017172;28;20073;-62
2021/09/16 05:57:12;;;;;;;6.43;2.20;;;;;;;;;;5019874;28;20132;-62
2021/09/16 05:59:38;;;;;;;5.03;2.40;;;;;;;;;;5023856;28;20071;-62
2021/09/16 06:02:05;;;;;;;9.30;2.80;;;;;;;;;;5024186;28;20140;-62
2021/09/16 06:04:31;;;;;;;11.77;2.60;;;;;;;;;;5022176;28;20151;-62
2021/09/16 06:07:03;;;;;;;3.95;1.98;;;;;;;;;;5018455;28;20124;-62
2021/09/16 06:09:33;;;;;;;4.93;2.25;;;;;;;;;;5021387;28;20543;-62
2021/09/16 06:12:02;;;;;;;4.97;2.60;;;;;;;;;;5024808;28;20563;-63
2021/09/16 06:14:29;;;;;;;12.20;2.45;;;;;;;;;;5021367;28;20046;-63
2021/09/16 06:16:56;;;;;;;5.65;2.28;;;;;;;;;;5023156;28;20137;-62
2021/09/16 06:19:22;;;;;;;4.90;2.45;;;;;;;;;;5019606;28;20181;-62
2021/09/16 06:21:49;;;;;;;6.95;2.78;;;;;;;;;;5015125;28;20138;-62
2021/09/16 06:24:16;;;;;;;4.97;2.40;;;;;;;;;;5017017;28;20680;-62
2021/09/16 06:26:42;;;;;;;6.38;2.70;;;;;;;;;;5023021;28;20501;-62
2021/09/16 06:29:10;;;;;;;7.60;2.63;;;;;;;;;;5020912;28;20049;-62
2021/09/16 06:31:37;;;;;;;7.20;2.13;;;;;;;;;;5016523;28;20115;-62
2021/09/16 06:34:04;;;;;;;6.22;2.70;;;;;;;;;;5022514;28;20081;-62
2021/09/16 06:36:31;;;;;;;7.57;2.80;;;;;;;;;;5018131;28;20085;-62
2021/09/16 06:38:58;;;;;;;7.03;2.33;;;;;;;;;;5017082;28;20124;-62
2021/09/16 06:41:24;;;;;;;11.57;3.20;;;;;;;;;;5019188;28;20124;-62
2021/09/16 06:43:51;;;;;;;4.97;2.42;;;;;;;;;;5021854;28;20077;-62
2021/09/16 06:46:18;;;;;;;5.53;3.10;;;;;;;;;;5021874;28;20084;-62
2021/09/16 06:48:44;;;;;;;5.55;3.10;;;;;;;;;;5022384;28;20088;-62
2021/09/16 06:51:11;;;;;;;7.60;2.67;;;;;;;;;;5021428;28;20049;-62
2021/09/16 06:53:57;;;;;;;9.70;2.95;;;;;;;;;;5017582;28;20045;-62
2021/09/16 06:56:24;;;;;;;10.13;3.10;;;;;;;;;;5021954;28;20506;-62
2021/09/16 06:58:51;;;;;;;7.45;3.00;;;;;;;;;;5018400;28;20081;-62
2021/09/16 07:01:17;;;;;;;7.78;2.90;;;;;;;;;;5028501;28;20081;-62
2021/09/16 07:03:46;;;;;;;7.57;3.30;;;;;;;;;;5021610;28;20056;-62
2021/09/16 07:06:14;;;;;;;3.95;2.67;;;;;;;;;;5026140;28;20719;-62
2021/09/16 07:08:42;;;;;;;6.82;3.58;;;;;;;;;;5026846;28;20046;-62
2021/09/16 07:11:08;;;;;;;6.90;3.38;;;;;;;;;;5024448;28;20076;-62
2021/09/16 07:13:35;;;;;;;6.35;3.28;;;;;;;;;;5020493;28;20544;-62
2021/09/16 07:16:02;;;;;;;4.93;2.90;;;;;;;;;;5017517;28;20096;-62
2021/09/16 07:18:28;;;;;;;6.05;3.65;;;;;;;;;;5014715;28;20096;-62
2021/09/16 07:20:55;;;;;;;6.28;3.47;;;;;;;;;;5021989;28;20083;-62
2021/09/16 07:23:22;;;;;;;8.63;3.63;;;;;;;;;;5021119;28;20580;-62
2021/09/16 07:25:48;;;;;;;5.22;2.95;;;;;;;;;;5024394;28;20092;-62
2021/09/16 07:28:15;;;;;;;6.90;3.33;;;;;;;;;;5028961;28;20121;-62
2021/09/16 07:30:42;;;;;;;8.98;3.85;;;;;;;;;;5023914;28;20173;-62
2021/09/16 07:33:08;;;;;;;7.30;3.40;;;;;;;;;;5024931;28;20144;-62
2021/09/16 07:35:36;;;;;;;5.85;2.70;;;;;;;;;;5031577;28;20535;-62
2021/09/16 07:38:02;;;;;;;6.40;3.08;;;;;;;;;;5027213;28;20088;-62
2021/09/16 07:40:29;;;;;;;6.93;3.35;;;;;;;;;;5026777;28;20053;-62
2021/09/16 07:42:56;;;;;;;7.10;3.38;;;;;;;;;;5027617;28;20096;-62
2021/09/16 07:45:22;;;;;;;6.90;3.38;;;;;;;;;;5020869;28;20081;-62
2021/09/16 07:47:49;;;;;;;6.13;3.38;;;;;;;;;;5011045;28;20072;-62
2021/09/16 07:50:16;;;;;;;7.82;3.38;;;;;;;;;;5027590;28;20092;-62
2021/09/16 07:52:43;;;;;;;9.23;3.70;;;;;;;;;;5027170;28;20088;-62
2021/09/16 07:55:09;;;;;;;7.85;3.35;;;;;;;;;;5024596;28;20073;-62
2021/09/16 07:57:36;;;;;;;4.18;2.83;;;;;;;;;;5026243;28;20132;-62
2021/09/16 08:00:03;;;;;;;4.60;3.73;;;;;;;;;;5021016;28;20133;-62
2021/09/16 08:02:30;;;;;;;5.07;3.33;;;;;;;;;;5023195;28;20608;-62
2021/09/16 08:04:57;;;;;;;6.28;3.45;;;;;;;;;;5029161;28;20358;-62
2021/09/16 08:07:24;;;;;;;6.13;3.42;;;;;;;;;;5029009;28;20512;-62
2021/09/16 08:09:50;;;;;;;6.60;3.70;;;;;;;;;;5027394;28;20042;-62
2021/09/16 08:12:17;;;;;;;7.33;3.47;;;;;;;;;;5020172;28;20056;-63
2021/09/16 08:14:44;;;;;;;8.63;3.55;;;;;;;;;;5023252;28;20079;-62
2021/09/16 08:17:10;;;;;;;3.90;3.00;;;;;;;;;;5028204;28;20058;-62
2021/09/16 08:19:39;;;;;;;4.85;3.03;;;;;;;;;;5023801;28;20049;-62
2021/09/16 08:22:06;;;;;;;4.65;3.20;;;;;;;;;;5023317;28;20084;-62
2021/09/16 08:24:34;;;;;;;6.10;3.10;;;;;;;;;;5016331;28;20133;-62
2021/09/16 08:27:01;;;;;;;4.90;3.45;;;;;;;;;;5026978;28;20058;-62
2021/09/16 08:29:28;;;;;;;6.13;3.70;;;;;;;;;;5025145;28;20150;-62
2021/09/16 08:31:54;;;;;;;6.70;3.50;;;;;;;;;;5019317;28;20148;-62
2021/09/16 08:34:25;;;;;;;3.95;3.03;;;;;;;;;;5021460;28;20053;-62
2021/09/16 08:36:52;;;;;;;8.60;3.15;;;;;;;;;;5029671;28;20053;-62
2021/09/16 08:39:19;;;;;;;5.65;3.33;;;;;;;;;;5020333;28;20081;-62
2021/09/16 08:41:46;;;;;;;;;;;;;;;;;;5023804;28;20128;-62
2021/09/16 08:44:15;;;;;;;3.45;2.78;;;;;;;;;;5025418;28;20016;-63
2021/09/16 08:46:42;;;;;;;4.32;3.25;;;;;;;;;;5031031;28;20183;-62
2021/09/16 08:49:08;;;;;;;7.45;2.95;;;;;;;;;;5020158;28;20049;-62
2021/09/16 08:51:37;;;;;;;4.63;3.17;;;;;;;;;;5024822;28;20128;-62
2021/09/16 08:54:04;;;;;;;4.38;3.20;;;;;;;;;;5021093;28;20184;-62
2021/09/16 08:56:31;;;;;;;4.82;3.22;;;;;;;;;;5026309;28;20057;-62
2021/09/16 08:59:02;;;;;;;6.53;3.45;;;;;;;;;;5031140;28;20136;-62
2021/09/16 09:01:29;;;;;;;6.10;3.35;;;;;;;;;;5019397;28;20081;-62
2021/09/16 09:03:57;;;;;;;5.40;3.13;;;;;;;;;;5025116;28;20053;-62
2021/09/16 09:06:28;;;;;;;6.55;3.58;;;;;;;;;;5024115;28;20081;-62
2021/09/16 09:09:06;;;;;;;4.57;2.92;;;;;;;;;;5016731;28;20062;-62
2021/09/16 09:11:47;;;;;;;5.22;2.58;;;;;;;;;;5026694;28;20050;-62
2021/09/16 09:14:18;;;;;;;3.70;2.83;;;;;;;;;;5020469;28;20087;-62
2021/09/16 09:16:45;;;;;;;2.63;2.33;;;;;;;;;;5024242;28;20572;-62
2021/09/16 09:19:16;;;;;;;4.07;2.40;;;;;;;;;;5025471;28;20058;-62
2021/09/16 09:21:43;;;;;;;4.30;2.30;;;;;;;;;;5015323;28;20120;-62
2021/09/16 09:24:10;;;;;;;2.95;2.60;;;;;;;;;;5015920;28;20092;-62
2021/09/16 09:26:38;;;;;;;7.90;3.00;;;;;;;;;;5021993;28;20472;-62
2021/09/16 09:29:04;;;;;;;;;;;;;;;;;;5020847;28;20133;-62
2021/09/16 09:31:31;;;;;;;3.70;2.70;;;;;;;;;;5022178;28;19925;-62
2021/09/16 09:33:57;;;;;;;5.63;2.90;;;;;;;;;;5017725;28;20518;-62
2021/09/16 09:36:24;;;;;;;6.68;3.03;;;;;;;;;;5028401;28;20471;-62
2021/09/16 09:38:58;;;;;;;3.10;2.50;;;;;;;;;;5023134;28;20112;-62
2021/09/16 09:41:32;;;;;;;5.18;2.85;;;;;;;;;;5020241;28;20050;-62
2021/09/16 09:44:08;;;;;;;4.68;3.08;;;;;;;;;;5020966;28;20041;-62
2021/09/16 09:46:51;;;;;;;4.65;3.10;;;;;;;;;;5021436;28;20050;-62
2021/09/16 09:49:21;;;;;;;3.42;2.85;;;;;;;;;;5016598;28;20068;-62
2021/09/16 09:51:52;;;;;;;5.38;3.50;;;;;;;;;;5017347;28;20084;-62
2021/09/16 09:54:27;;;;;;;4.95;3.00;;;;;;;;;;5019786;28;20050;-62
2021/09/16 09:56:57;;;;;;;5.22;2.72;;;;;;;;;;5027558;28;20465;-62
2021/09/16 09:59:25;;;;;;;3.30;2.90;;;;;;;;;;5026858;28;20563;-62
2021/09/16 10:02:03;;;;;;;3.90;3.28;;;;;;;;;;5025283;28;20119;-62
2021/09/16 10:04:30;;;;;;;;;;;;;;;;;;5019497;28;20061;-62
2021/09/16 10:06:58;;;;;;;4.72;3.25;;;;;;;;;;5024586;28;19964;-62
2021/09/16 10:09:26;;;;;;;5.43;3.40;;;;;;;;;;5019930;28;20073;-62
2021/09/16 10:11:55;;;;;;;4.60;2.90;;;;;;;;;;5022303;28;20046;-62
2021/09/16 10:14:21;;;;;;;5.53;2.92;;;;;;;;;;5022885;28;20420;-62
2021/09/16 10:16:48;;;;;;;6.45;3.35;;;;;;;;;;5024896;28;20116;-62
2021/09/16 10:19:15;;;;;;;5.25;2.53;;;;;;;;;;5020312;28;20481;-62
2021/09/16 10:21:42;;;;;;;2.92;2.40;;;;;;;;;;5013639;28;20490;-62
2021/09/16 10:24:13;;;;;;;3.35;2.78;;;;;;;;;;5022100;28;20077;-62
2021/09/16 10:26:41;;;;;;;4.30;2.92;;;;;;;;;;5021303;28;20520;-62
2021/09/16 10:29:07;;;;;;;;;;;;;;;;;;5015090;28;20529;-62
2021/09/16 10:31:34;;;;;;;4.65;3.08;;;;;;;;;;5017152;28;19921;-62
2021/09/16 10:34:21;;;;;;;4.55;2.90;;;;;;;;;;5020529;28;20052;-62
2021/09/16 10:37:23;;;;;;;4.50;3.13;;;;;;;;;;5020030;28;20510;-62
2021/09/16 10:39:50;;;;;;;8.98;3.15;;;;;;;;;;4960191;28;20563;-62
2021/09/16 10:42:17;;;;;;;4.10;2.78;;;;;;;;;;5014271;28;20050;-62
2021/09/16 10:44:44;;;;;;;4.95;3.25;;;;;;;;;;5025185;28;20136;-62
2021/09/16 10:47:18;;;;;;;3.95;3.22;;;;;;;;;;5018110;28;20050;-62
2021/09/16 10:49:45;;;;;;;4.35;3.00;;;;;;;;;;5022633;28;20089;-62
2021/09/16 10:52:13;;;;;;;5.30;3.90;;;;;;;;;;5022678;28;20049;-62
2021/09/16 10:54:39;;;;;;;6.70;3.67;;;;;;;;;;5018477;28;20137;-62
2021/09/16 10:57:06;;;;;;;4.38;3.20;;;;;;;;;;5023696;28;20081;-62
2021/09/16 10:59:52;;;;;;;2.53;2.30;;;;;;;;;;5018597;28;20058;-62
2021/09/16 11:02:25;;;;;;;4.57;2.72;;;;;;;;;;5019465;28;20078;-62
2021/09/16 11:04:55;;;;;;;4.30;2.80;;;;;;;;;;5026639;28;20061;-62
2021/09/16 11:07:35;;;;;;;5.72;3.75;;;;;;;;;;5027812;28;20060;-63
2021/09/16 11:10:15;;;;;;;4.00;2.85;;;;;;;;;;5018768;28;20141;-62
2021/09/16 11:12:46;;;;;;;4.00;2.55;;;;;;;;;;5029907;28;20451;-62
2021/09/16 11:15:14;;;;;;;5.63;3.67;;;;;;;;;;5022016;28;20045;-62
2021/09/16 11:17:40;;;;;;;;;;;;;;;;;;5030796;28;20128;-62
2021/09/16 11:20:09;;;;;;;9.63;3.38;;;;;;;;;;5027539;28;19971;-62
2021/09/16 11:22:41;;;;;;;5.70;3.35;;;;;;;;;;5023118;28;20053;-62
2021/09/16 11:25:08;;;;;;;4.47;3.13;;;;;;;;;;5024770;28;20128;-62
2021/09/16 11:27:39;;;;;;;4.95;3.50;;;;;;;;;;5025110;28;20129;-62
2021/09/16 11:30:19;;;;;;;3.90;3.47;;;;;;;;;;5024892;28;20267;-62
2021/09/16 11:32:45;;;;;;;7.78;3.58;;;;;;;;;;5025908;28;20081;-62
2021/09/16 11:35:17;;;;;;;4.93;3.30;;;;;;;;;;5023122;28;20120;-62
2021/09/16 11:37:45;;;;;;;4.65;3.63;;;;;;;;;;5020585;28;20088;-62
2021/09/16 11:40:11;;;;;;;;;;;;;;;;;;5021772;28;20077;-62
2021/09/16 11:42:39;;;;;;;5.57;3.45;;;;;;;;;;5024768;28;20011;-62
2021/09/16 11:45:05;;;;;;;;;;;;;;;;;;5027098;28;20116;-62
2021/09/16 11:47:46;;;;;;;4.20;3.13;;;;;;;;;;5025812;28;19984;-62
2021/09/16 11:50:21;;;;;;;4.25;3.35;;;;;;;;;;5024478;28;20085;-63
2021/09/16 11:52:52;;;;;;;3.80;2.92;;;;;;;;;;5018466;28;20081;-62
2021/09/16 11:55:19;;;;;;;3.38;2.90;;;;;;;;;;5023076;28;20136;-62
2021/09/16 11:57:52;;;;;;;4.03;3.10;;;;;;;;;;5022266;28;20077;-62
2021/09/16 12:00:35;;;;;;;4.90;2.95;;;;;;;;;;5021955;28;20142;-62
2021/09/16 12:03:04;;;;;;;4.95;3.28;;;;;;;;;;5023110;28;20053;-62
2021/09/16 12:05:45;;;;;;;3.10;2.80;;;;;;;;;;5020026;28;20061;-62
2021/09/16 12:08:29;;;;;;;6.22;3.03;;;;;;;;;;5021000;28;20049;-62
2021/09/16 12:11:14;;;;;;;3.67;2.60;;;;;;;;;;5019289;28;20106;-62
2021/09/16 12:13:48;;;;;;;4.75;3.15;;;;;;;;;;5025190;28;20053;-62
2021/09/16 12:16:18;;;;;;;4.97;2.72;;;;;;;;;;5019060;28;20339;-62
2021/09/16 12:18:46;;;;;;;11.35;3.13;;;;;;;;;;5024901;28;20456;-62
2021/09/16 12:21:32;;;;;;;6.85;2.83;;;;;;;;;;5011913;28;20129;-62
2021/09/16 12:24:12;;;;;;;4.15;2.70;;;;;;;;;;5026957;28;20081;-62
2021/09/16 12:26:40;;;;;;;3.10;2.63;;;;;;;;;;5027126;28;20124;-62
2021/09/16 12:29:11;;;;;;;3.50;2.90;;;;;;;;;;5026891;28;20069;-62
2021/09/16 12:31:42;;;;;;;5.93;2.75;;;;;;;;;;5021736;28;20148;-62
2021/09/16 12:34:12;;;;;;;3.25;2.47;;;;;;;;;;5020622;28;20231;-62
2021/09/16 12:36:51;;;;;;;6.40;2.70;;;;;;;;;;5019979;28;20129;-62
2021/09/16 12:39:18;;;;;;;2.80;2.25;;;;;;;;;;5021182;28;20105;-62
2021/09/16 12:41:54;;;;;;;3.83;2.33;;;;;;;;;;5025275;28;20077;-62
2021/09/16 12:44:29;;;;;;;6.45;2.70;;;;;;;;;;5025095;28;20293;-62
2021/09/16 12:46:55;;;;;;;4.97;2.75;;;;;;;;;;5023173;28;20137;-62
2021/09/16 12:49:34;;;;;;;4.05;2.70;;;;;;;;;;5019841;28;20141;-62
2021/09/16 12:52:01;;;;;;;;;;;;;;;;;;5020787;28;20085;-62
2021/09/16 12:54:29;;;;;;;3.67;2.30;;;;;;;;;;5023532;28;19925;-62
2021/09/16 12:56:55;;;;;;;2.92;2.40;;;;;;;;;;5020033;28;20532;-62
2021/09/16 12:59:24;;;;;;;4.20;2.70;;;;;;;;;;5015078;28;20136;-64
2021/09/16 13:02:11;;;;;;;3.88;2.45;;;;;;;;;;5021613;28;20128;-62
2021/09/16 13:04:52;;;;;;;2.60;2.10;;;;;;;;;;5019208;28;20107;-62
2021/09/16 13:07:20;;;;;;;2.58;2.20;;;;;;;;;;5028427;28;20463;-62
2021/09/16 13:09:47;;;;;;;2.30;2.10;;;;;;;;;;5023626;28;20084;-62
2021/09/16 13:12:17;;;;;;;2.72;2.38;;;;;;;;;;5026630;28;20133;-62
2021/09/16 13:14:44;;;;;;;2.40;2.20;;;;;;;;;;5024302;28;20053;-62
2021/09/16 13:17:11;;;;;;;4.20;2.20;;;;;;;;;;5015848;28;20081;-62
2021/09/16 13:19:37;;;;;;;2.45;2.08;;;;;;;;;;5022836;28;20132;-62
2021/09/16 13:22:04;;;;;;;3.35;2.40;;;;;;;;;;5023538;28;20128;-62
2021/09/16 13:24:31;;;;;;;2.30;2.10;;;;;;;;;;5021005;28;20092;-62
2021/09/16 13:26:57;;;;;;;3.33;2.17;;;;;;;;;;5020297;28;20141;-62
2021/09/16 13:29:24;;;;;;;2.42;1.90;;;;;;;;;;5014654;28;20561;-62
2021/09/16 13:31:51;;;;;;;3.42;2.00;;;;;;;;;;5025077;28;20531;-62
2021/09/16 13:34:17;;;;;;;2.97;2.13;;;;;;;;;;5020077;28;20132;-62
2021/09/16 13:36:44;;;;;;;2.57;1.77;;;;;;;;;;5020389;28;20509;-62
2021/09/16 13:39:11;;;;;;;2.45;1.80;;;;;;;;;;5020609;28;20081;-62
2021/09/16 13:41:41;;;;;;;5.65;2.53;;;;;;;;;;5017728;28;20037;-62
2021/09/16 13:44:08;;;;;;;3.42;1.90;;;;;;;;;;5023540;28;20085;-62
2021/09/16 13:46:38;;;;;;;2.85;1.73;;;;;;;;;;5019837;28;20081;-62
2021/09/16 13:49:05;;;;;;;2.22;2.00;;;;;;;;;;5024284;28;20492;-62
2021/09/16 13:51:32;;;;;;;2.78;1.70;;;;;;;;;;5015142;28;20534;-62
2021/09/16 13:54:02;;;;;;;3.90;1.90;;;;;;;;;;5025092;28;20049;-62
2021/09/16 13:56:29;;;;;;;3.38;1.80;;;;;;;;;;5020529;28;20128;-62
2021/09/16 13:58:56;;;;;;;3.22;2.00;;;;;;;;;;5026496;28;20107;-63
2021/09/16 14:01:23;;;;;;;2.20;1.75;;;;;;;;;;5024515;28;20077;-62
2021/09/16 14:03:49;;;;;;;4.50;2.15;;;;;;;;;;5023828;28;20049;-62
2021/09/16 14:06:17;;;;;;;3.95;1.80;;;;;;;;;;5019867;28;20045;-62
2021/09/16 14:08:44;;;;;;;1.75;1.58;;;;;;;;;;5020179;28;20093;-62
2021/09/16 14:11:11;;;;;;;1.60;1.50;;;;;;;;;;5016644;28;20505;-62
2021/09/16 14:13:38;;;;;;;2.33;1.90;;;;;;;;;;5025763;28;20497;-62
2021/09/16 14:16:04;;;;;;;2.95;1.73;;;;;;;;;;5024985;28;20084;-62
2021/09/16 14:18:31;;;;;;;3.83;1.73;;;;;;;;;;5020921;28;20631;-62
2021/09/16 14:20:58;;;;;;;2.40;1.70;;;;;;;;;;5026380;28;20127;-62
2021/09/16 14:23:24;;;;;;;3.65;1.75;;;;;;;;;;5022859;28;20045;-62
2021/09/16 14:25:51;;;;;;;2.08;1.77;;;;;;;;;;5022844;28;20133;-62
2021/09/16 14:28:22;;;;;;;1.30;1.20;;;;;;;;;;5020290;28;20056;-63
2021/09/16 14:30:49;;;;;;;3.38;2.00;;;;;;;;;;5022754;28;20561;-62
2021/09/16 14:33:35;;;;;;;2.33;1.83;;;;;;;;;;5018064;28;20062;-63
2021/09/16 14:36:02;;;;;;;2.92;1.77;;;;;;;;;;5020433;28;20146;-63
2021/09/16 14:38:29;;;;;;;1.80;1.60;;;;;;;;;;5021056;28;20572;-63
2021/09/16 14:40:55;;;;;;;2.38;1.70;;;;;;;;;;5023695;28;20076;-63
2021/09/16 14:43:27;;;;;;;1.80;1.70;;;;;;;;;;5025071;28;20042;-63
2021/09/16 14:45:54;;;;;;;1.65;1.55;;;;;;;;;;5026483;28;20524;-62
2021/09/16 14:48:21;;;;;;;1.90;1.60;;;;;;;;;;5025978;28;20082;-63
2021/09/16 14:50:47;;;;;;;2.87;1.73;;;;;;;;;;5015795;28;20144;-62